sensor_id;sensor_type;location;lat;lon;timestamp;P1;durP1;ratioP1;P2;durP2;ratioP2
19179;SDS011;9722;48.754;8.868;2023-04-01T00:00:57;0.73;;;0.20;;
19179;SDS011;9722;48.754;8.868;2023-04-01T00:04:18;0.53;;;0.33;;
19179;SDS011;9722;48.754;8.868;2023-04-01T00:07:40;1.40;;;0.63;;
19179;SDS011;9722;48.754;8.868;2023-04-01T00:11:00;0.77;;;0.30;;
19179;SDS011;9722;48.754;8.868;2023-04-01T00:14:21;1.13;;;0.50;;
19179;SDS011;9722;48.754;8.868;2023-04-01T00:17:41;2.83;;;0.53;;
19179;SDS011;9722;48.754;8.868;2023-04-01T00:21:02;1.90;;;0.30;;
19179;SDS011;9722;48.754;8.868;2023-04-01T00:24:23;0.40;;;0.40;;
19179;SDS011;9722;48.754;8.868;2023-04-01T00:27:43;0.50;;;0.40;;
19179;SDS011;9722;48.754;8.868;2023-04-01T00:31:08;1.67;;;0.53;;
19179;SDS011;9722;48.754;8.868;2023-04-01T00:34:29;1.53;;;0.50;;
19179;SDS011;9722;48.754;8.868;2023-04-01T00:37:50;1.67;;;0.50;;
19179;SDS011;9722;48.754;8.868;2023-04-01T00:41:11;0.40;;;0.33;;
19179;SDS011;9722;48.754;8.868;2023-04-01T00:44:36;1.77;;;0.50;;
19179;SDS011;9722;48.754;8.868;2023-04-01T00:47:59;2.23;;;0.40;;
19179;SDS011;9722;48.754;8.868;2023-04-01T00:51:25;2.53;;;1.77;;
19179;SDS011;9722;48.754;8.868;2023-04-01T00:54:49;1.43;;;0.40;;
19179;SDS011;9722;48.754;8.868;2023-04-01T00:58:14;1.07;;;0.40;;
19179;SDS011;9722;48.754;8.868;2023-04-01T01:01:38;1.17;;;0.33;;
19179;SDS011;9722;48.754;8.868;2023-04-01T01:04:58;0.43;;;0.37;;
19179;SDS011;9722;48.754;8.868;2023-04-01T01:19:01;1.20;;;0.60;;
19179;SDS011;9722;48.754;8.868;2023-04-01T01:33:32;0.33;;;0.30;;
19179;SDS011;9722;48.754;8.868;2023-04-01T01:37:05;0.47;;;0.40;;
19179;SDS011;9722;48.754;8.868;2023-04-01T01:40:33;2.30;;;0.50;;
19179;SDS011;9722;48.754;8.868;2023-04-01T01:43:56;1.37;;;0.43;;
19179;SDS011;9722;48.754;8.868;2023-04-01T01:47:19;2.27;;;0.40;;
19179;SDS011;9722;48.754;8.868;2023-04-01T01:50:43;1.10;;;0.30;;
19179;SDS011;9722;48.754;8.868;2023-04-01T01:54:05;0.93;;;0.30;;
19179;SDS011;9722;48.754;8.868;2023-04-01T01:57:28;0.83;;;0.30;;
19179;SDS011;9722;48.754;8.868;2023-04-01T02:00:54;1.13;;;0.63;;
19179;SDS011;9722;48.754;8.868;2023-04-01T02:04:17;0.77;;;0.40;;
19179;SDS011;9722;48.754;8.868;2023-04-01T02:07:38;1.80;;;0.30;;
19179;SDS011;9722;48.754;8.868;2023-04-01T02:11:06;1.70;;;0.30;;
19179;SDS011;9722;48.754;8.868;2023-04-01T02:14:42;0.20;;;0.20;;
19179;SDS011;9722;48.754;8.868;2023-04-01T02:18:30;1.03;;;0.30;;
19179;SDS011;9722;48.754;8.868;2023-04-01T02:21:55;0.50;;;0.30;;
19179;SDS011;9722;48.754;8.868;2023-04-01T02:25:24;0.43;;;0.37;;
19179;SDS011;9722;48.754;8.868;2023-04-01T02:28:50;0.93;;;0.33;;
19179;SDS011;9722;48.754;8.868;2023-04-01T02:32:12;0.20;;;0.20;;
19179;SDS011;9722;48.754;8.868;2023-04-01T02:35:35;0.83;;;0.20;;
19179;SDS011;9722;48.754;8.868;2023-04-01T02:38:57;0.57;;;0.30;;
19179;SDS011;9722;48.754;8.868;2023-04-01T02:42:22;0.20;;;0.20;;
19179;SDS011;9722;48.754;8.868;2023-04-01T02:45:42;0.83;;;0.40;;
19179;SDS011;9722;48.754;8.868;2023-04-01T02:49:03;0.43;;;0.23;;
19179;SDS011;9722;48.754;8.868;2023-04-01T02:52:24;0.70;;;0.30;;
19179;SDS011;9722;48.754;8.868;2023-04-01T02:55:45;2.20;;;0.43;;
19179;SDS011;9722;48.754;8.868;2023-04-01T02:59:06;1.23;;;0.30;;
19179;SDS011;9722;48.754;8.868;2023-04-01T03:02:26;0.63;;;0.40;;
19179;SDS011;9722;48.754;8.868;2023-04-01T03:05:47;0.27;;;0.27;;
19179;SDS011;9722;48.754;8.868;2023-04-01T03:09:07;0.60;;;0.30;;
19179;SDS011;9722;48.754;8.868;2023-04-01T03:12:28;1.63;;;0.40;;
19179;SDS011;9722;48.754;8.868;2023-04-01T03:15:49;0.77;;;0.27;;
19179;SDS011;9722;48.754;8.868;2023-04-01T03:19:09;0.63;;;0.30;;
19179;SDS011;9722;48.754;8.868;2023-04-01T03:22:30;0.53;;;0.23;;
19179;SDS011;9722;48.754;8.868;2023-04-01T03:25:51;0.23;;;0.23;;
19179;SDS011;9722;48.754;8.868;2023-04-01T03:29:11;0.27;;;0.23;;
19179;SDS011;9722;48.754;8.868;2023-04-01T03:32:32;0.37;;;0.30;;
19179;SDS011;9722;48.754;8.868;2023-04-01T03:35:53;1.33;;;0.30;;
19179;SDS011;9722;48.754;8.868;2023-04-01T03:39:14;1.30;;;0.30;;
19179;SDS011;9722;48.754;8.868;2023-04-01T03:42:38;1.90;;;0.30;;
19179;SDS011;9722;48.754;8.868;2023-04-01T03:45:59;0.87;;;0.37;;
19179;SDS011;9722;48.754;8.868;2023-04-01T03:49:19;0.93;;;0.30;;
19179;SDS011;9722;48.754;8.868;2023-04-01T03:52:40;0.33;;;0.20;;
19179;SDS011;9722;48.754;8.868;2023-04-01T03:56:06;1.50;;;0.20;;
19179;SDS011;9722;48.754;8.868;2023-04-01T03:59:28;0.10;;;0.10;;
19179;SDS011;9722;48.754;8.868;2023-04-01T04:02:48;0.57;;;0.33;;
19179;SDS011;9722;48.754;8.868;2023-04-01T04:06:12;0.53;;;0.20;;
19179;SDS011;9722;48.754;8.868;2023-04-01T04:09:33;0.50;;;0.40;;
19179;SDS011;9722;48.754;8.868;2023-04-01T04:12:54;0.80;;;0.30;;
19179;SDS011;9722;48.754;8.868;2023-04-01T04:16:16;1.17;;;0.33;;
19179;SDS011;9722;48.754;8.868;2023-04-01T04:19:37;2.00;;;0.43;;
19179;SDS011;9722;48.754;8.868;2023-04-01T04:22:57;0.70;;;0.30;;
19179;SDS011;9722;48.754;8.868;2023-04-01T04:26:20;0.27;;;0.27;;
19179;SDS011;9722;48.754;8.868;2023-04-01T04:29:40;0.50;;;0.30;;
19179;SDS011;9722;48.754;8.868;2023-04-01T04:33:01;0.67;;;0.37;;
19179;SDS011;9722;48.754;8.868;2023-04-01T04:36:22;1.37;;;0.40;;
19179;SDS011;9722;48.754;8.868;2023-04-01T04:39:42;0.97;;;0.40;;
19179;SDS011;9722;48.754;8.868;2023-04-01T04:43:03;0.20;;;0.20;;
19179;SDS011;9722;48.754;8.868;2023-04-01T04:46:24;0.33;;;0.30;;
19179;SDS011;9722;48.754;8.868;2023-04-01T04:49:45;0.97;;;0.40;;
19179;SDS011;9722;48.754;8.868;2023-04-01T04:53:05;0.93;;;0.40;;
19179;SDS011;9722;48.754;8.868;2023-04-01T04:56:26;0.93;;;0.30;;
19179;SDS011;9722;48.754;8.868;2023-04-01T04:59:46;0.60;;;0.40;;
19179;SDS011;9722;48.754;8.868;2023-04-01T05:03:07;2.13;;;0.40;;
19179;SDS011;9722;48.754;8.868;2023-04-01T05:06:28;1.73;;;0.40;;
19179;SDS011;9722;48.754;8.868;2023-04-01T05:09:49;1.60;;;0.30;;
19179;SDS011;9722;48.754;8.868;2023-04-01T05:13:10;1.60;;;0.50;;
19179;SDS011;9722;48.754;8.868;2023-04-01T05:16:30;1.10;;;0.40;;
19179;SDS011;9722;48.754;8.868;2023-04-01T05:19:51;1.33;;;0.50;;
19179;SDS011;9722;48.754;8.868;2023-04-01T05:23:12;1.10;;;0.70;;
19179;SDS011;9722;48.754;8.868;2023-04-01T05:26:32;1.47;;;0.30;;
19179;SDS011;9722;48.754;8.868;2023-04-01T05:29:53;0.80;;;0.40;;
19179;SDS011;9722;48.754;8.868;2023-04-01T05:33:13;0.60;;;0.40;;
19179;SDS011;9722;48.754;8.868;2023-04-01T05:36:34;2.13;;;0.60;;
19179;SDS011;9722;48.754;8.868;2023-04-01T05:39:55;1.27;;;0.40;;
19179;SDS011;9722;48.754;8.868;2023-04-01T05:43:16;1.23;;;0.40;;
19179;SDS011;9722;48.754;8.868;2023-04-01T05:46:36;0.87;;;0.20;;
19179;SDS011;9722;48.754;8.868;2023-04-01T05:49:57;0.77;;;0.30;;
19179;SDS011;9722;48.754;8.868;2023-04-01T05:53:17;0.30;;;0.30;;
19179;SDS011;9722;48.754;8.868;2023-04-01T05:56:38;1.17;;;0.50;;
19179;SDS011;9722;48.754;8.868;2023-04-01T05:59:58;1.03;;;0.43;;
19179;SDS011;9722;48.754;8.868;2023-04-01T06:03:19;0.63;;;0.30;;
19179;SDS011;9722;48.754;8.868;2023-04-01T06:06:39;0.63;;;0.37;;
19179;SDS011;9722;48.754;8.868;2023-04-01T06:10:00;1.47;;;0.53;;
19179;SDS011;9722;48.754;8.868;2023-04-01T06:17:24;0.30;;;0.30;;
19179;SDS011;9722;48.754;8.868;2023-04-01T06:21:18;0.70;;;0.30;;
19179;SDS011;9722;48.754;8.868;2023-04-01T06:25:07;1.10;;;0.40;;
19179;SDS011;9722;48.754;8.868;2023-04-01T06:32:40;2.33;;;0.70;;
19179;SDS011;9722;48.754;8.868;2023-04-01T06:47:55;3.80;;;0.90;;
19179;SDS011;9722;48.754;8.868;2023-04-01T06:51:34;1.03;;;0.50;;
19179;SDS011;9722;48.754;8.868;2023-04-01T07:02:28;0.30;;;0.30;;
19179;SDS011;9722;48.754;8.868;2023-04-01T07:06:03;0.40;;;0.37;;
19179;SDS011;9722;48.754;8.868;2023-04-01T07:09:33;1.93;;;0.87;;
19179;SDS011;9722;48.754;8.868;2023-04-01T07:12:58;0.90;;;0.40;;
19179;SDS011;9722;48.754;8.868;2023-04-01T07:16:25;0.77;;;0.70;;
19179;SDS011;9722;48.754;8.868;2023-04-01T07:23:26;1.00;;;0.87;;
19179;SDS011;9722;48.754;8.868;2023-04-01T07:26:55;0.63;;;0.63;;
19179;SDS011;9722;48.754;8.868;2023-04-01T07:30:21;1.67;;;0.50;;
19179;SDS011;9722;48.754;8.868;2023-04-01T07:37:10;0.30;;;0.30;;
19179;SDS011;9722;48.754;8.868;2023-04-01T07:58:44;0.60;;;0.50;;
19179;SDS011;9722;48.754;8.868;2023-04-01T08:09:22;0.80;;;0.40;;
19179;SDS011;9722;48.754;8.868;2023-04-01T08:16:28;1.23;;;0.20;;
19179;SDS011;9722;48.754;8.868;2023-04-01T08:23:40;0.90;;;0.33;;
19179;SDS011;9722;48.754;8.868;2023-04-01T08:31:05;0.30;;;0.30;;
19179;SDS011;9722;48.754;8.868;2023-04-01T08:34:39;1.07;;;0.40;;
19179;SDS011;9722;48.754;8.868;2023-04-01T08:38:10;0.20;;;0.20;;
19179;SDS011;9722;48.754;8.868;2023-04-01T08:45:07;0.73;;;0.40;;
19179;SDS011;9722;48.754;8.868;2023-04-01T08:52:22;2.70;;;1.67;;
19179;SDS011;9722;48.754;8.868;2023-04-01T09:11:28;0.30;;;0.30;;
19179;SDS011;9722;48.754;8.868;2023-04-01T09:29:40;1.03;;;0.40;;
19179;SDS011;9722;48.754;8.868;2023-04-01T09:37:17;0.83;;;0.63;;
19179;SDS011;9722;48.754;8.868;2023-04-01T09:44:17;0.67;;;0.60;;
19179;SDS011;9722;48.754;8.868;2023-04-01T09:47:49;0.77;;;0.43;;
19179;SDS011;9722;48.754;8.868;2023-04-01T10:06:51;0.30;;;0.30;;
19179;SDS011;9722;48.754;8.868;2023-04-01T10:10:47;0.30;;;0.30;;
19179;SDS011;9722;48.754;8.868;2023-04-01T10:14:25;0.23;;;0.20;;
19179;SDS011;9722;48.754;8.868;2023-04-01T10:25:29;0.20;;;0.20;;
19179;SDS011;9722;48.754;8.868;2023-04-01T10:29:27;0.23;;;0.10;;
19179;SDS011;9722;48.754;8.868;2023-04-01T10:40:20;0.43;;;0.10;;
19179;SDS011;9722;48.754;8.868;2023-04-01T10:47:49;1.23;;;0.20;;
19179;SDS011;9722;48.754;8.868;2023-04-01T10:51:42;0.20;;;0.20;;
19179;SDS011;9722;48.754;8.868;2023-04-01T11:02:59;0.30;;;0.27;;
19179;SDS011;9722;48.754;8.868;2023-04-01T11:33:34;0.13;;;0.13;;
19179;SDS011;9722;48.754;8.868;2023-04-01T11:37:05;0.10;;;0.10;;
19179;SDS011;9722;48.754;8.868;2023-04-01T11:40:32;0.10;;;0.10;;
19179;SDS011;9722;48.754;8.868;2023-04-01T11:44:16;0.10;;;0.10;;
19179;SDS011;9722;48.754;8.868;2023-04-01T11:51:31;0.10;;;0.10;;
19179;SDS011;9722;48.754;8.868;2023-04-01T11:55:13;0.30;;;0.10;;
19179;SDS011;9722;48.754;8.868;2023-04-01T11:59:03;0.10;;;0.10;;
19179;SDS011;9722;48.754;8.868;2023-04-01T12:10:19;0.10;;;0.10;;
19179;SDS011;9722;48.754;8.868;2023-04-01T12:13:48;0.13;;;0.13;;
19179;SDS011;9722;48.754;8.868;2023-04-01T12:17:27;0.20;;;0.20;;
19179;SDS011;9722;48.754;8.868;2023-04-01T12:21:11;0.10;;;0.10;;
19179;SDS011;9722;48.754;8.868;2023-04-01T12:24:49;0.20;;;0.20;;
19179;SDS011;9722;48.754;8.868;2023-04-01T12:28:37;0.10;;;0.10;;
19179;SDS011;9722;48.754;8.868;2023-04-01T12:32:19;0.07;;;0.07;;
19179;SDS011;9722;48.754;8.868;2023-04-01T13:02:06;0.40;;;0.20;;
19179;SDS011;9722;48.754;8.868;2023-04-01T13:13:00;0.10;;;0.10;;
19179;SDS011;9722;48.754;8.868;2023-04-01T13:20:54;0.10;;;0.10;;
19179;SDS011;9722;48.754;8.868;2023-04-01T13:28:23;0.60;;;0.60;;
19179;SDS011;9722;48.754;8.868;2023-04-01T13:31:52;2.10;;;0.40;;
19179;SDS011;9722;48.754;8.868;2023-04-01T13:43:01;0.20;;;0.20;;
19179;SDS011;9722;48.754;8.868;2023-04-01T13:50:15;0.10;;;0.10;;
19179;SDS011;9722;48.754;8.868;2023-04-01T14:16:47;0.20;;;0.20;;
19179;SDS011;9722;48.754;8.868;2023-04-01T14:20:34;0.20;;;0.20;;
19179;SDS011;9722;48.754;8.868;2023-04-01T14:32:31;0.13;;;0.13;;
19179;SDS011;9722;48.754;8.868;2023-04-01T14:36:04;0.30;;;0.30;;
19179;SDS011;9722;48.754;8.868;2023-04-01T14:39:49;0.27;;;0.20;;
19179;SDS011;9722;48.754;8.868;2023-04-01T14:47:46;0.20;;;0.20;;
19179;SDS011;9722;48.754;8.868;2023-04-01T14:51:21;0.13;;;0.13;;
19179;SDS011;9722;48.754;8.868;2023-04-01T14:54:49;0.13;;;0.13;;
19179;SDS011;9722;48.754;8.868;2023-04-01T14:58:15;0.30;;;0.20;;
19179;SDS011;9722;48.754;8.868;2023-04-01T15:01:43;0.43;;;0.30;;
19179;SDS011;9722;48.754;8.868;2023-04-01T15:05:27;0.20;;;0.20;;
19179;SDS011;9722;48.754;8.868;2023-04-01T15:08:52;0.60;;;0.60;;
19179;SDS011;9722;48.754;8.868;2023-04-01T15:12:36;0.70;;;0.53;;
19179;SDS011;9722;48.754;8.868;2023-04-01T15:23:45;0.87;;;0.60;;
19179;SDS011;9722;48.754;8.868;2023-04-01T15:31:11;0.50;;;0.50;;
19179;SDS011;9722;48.754;8.868;2023-04-01T15:34:38;3.87;;;3.53;;
19179;SDS011;9722;48.754;8.868;2023-04-01T15:42:12;0.20;;;0.20;;
19179;SDS011;9722;48.754;8.868;2023-04-01T15:45:56;0.40;;;0.40;;
19179;SDS011;9722;48.754;8.868;2023-04-01T16:00:13;0.20;;;0.20;;
19179;SDS011;9722;48.754;8.868;2023-04-01T16:07:25;0.70;;;0.37;;
19179;SDS011;9722;48.754;8.868;2023-04-01T16:36:12;2.17;;;1.60;;
19179;SDS011;9722;48.754;8.868;2023-04-01T16:47:09;1.47;;;0.83;;
19179;SDS011;9722;48.754;8.868;2023-04-01T16:50:39;0.70;;;0.70;;
19179;SDS011;9722;48.754;8.868;2023-04-01T17:01:14;0.97;;;0.60;;
19179;SDS011;9722;48.754;8.868;2023-04-01T17:05:04;2.60;;;1.80;;
19179;SDS011;9722;48.754;8.868;2023-04-01T17:19:37;3.03;;;1.77;;
19179;SDS011;9722;48.754;8.868;2023-04-01T17:26:32;2.30;;;1.70;;
19179;SDS011;9722;48.754;8.868;2023-04-01T17:33:44;1.80;;;1.20;;
19179;SDS011;9722;48.754;8.868;2023-04-01T17:37:25;0.70;;;0.70;;
19179;SDS011;9722;48.754;8.868;2023-04-01T17:41:01;1.07;;;0.80;;
19179;SDS011;9722;48.754;8.868;2023-04-01T17:48:48;1.63;;;1.00;;
19179;SDS011;9722;48.754;8.868;2023-04-01T17:52:17;1.90;;;1.60;;
19179;SDS011;9722;48.754;8.868;2023-04-01T17:56:17;3.40;;;3.10;;
19179;SDS011;9722;48.754;8.868;2023-04-01T18:03:45;2.37;;;1.70;;
19179;SDS011;9722;48.754;8.868;2023-04-01T18:18:40;1.53;;;1.00;;
19179;SDS011;9722;48.754;8.868;2023-04-01T18:22:09;1.77;;;0.90;;
19179;SDS011;9722;48.754;8.868;2023-04-01T18:25:40;0.80;;;0.50;;
19179;SDS011;9722;48.754;8.868;2023-04-01T18:29:08;0.80;;;0.80;;
19179;SDS011;9722;48.754;8.868;2023-04-01T18:32:56;0.80;;;0.80;;
19179;SDS011;9722;48.754;8.868;2023-04-01T18:36:55;2.90;;;0.93;;
19179;SDS011;9722;48.754;8.868;2023-04-01T18:40:25;0.70;;;0.70;;
19179;SDS011;9722;48.754;8.868;2023-04-01T18:43:52;0.90;;;0.70;;
19179;SDS011;9722;48.754;8.868;2023-04-01T18:47:41;0.80;;;0.80;;
19179;SDS011;9722;48.754;8.868;2023-04-01T18:51:27;1.33;;;0.73;;
19179;SDS011;9722;48.754;8.868;2023-04-01T18:58:26;0.73;;;0.50;;
19179;SDS011;9722;48.754;8.868;2023-04-01T19:05:34;1.73;;;0.70;;
19179;SDS011;9722;48.754;8.868;2023-04-01T19:16:54;2.30;;;0.87;;
19179;SDS011;9722;48.754;8.868;2023-04-01T19:20:47;2.23;;;1.40;;
19179;SDS011;9722;48.754;8.868;2023-04-01T19:27:53;1.47;;;1.20;;
19179;SDS011;9722;48.754;8.868;2023-04-01T19:31:35;0.73;;;0.73;;
19179;SDS011;9722;48.754;8.868;2023-04-01T19:35:34;1.53;;;0.90;;
19179;SDS011;9722;48.754;8.868;2023-04-01T19:46:25;2.00;;;1.53;;
19179;SDS011;9722;48.754;8.868;2023-04-01T19:50:04;1.40;;;1.30;;
19179;SDS011;9722;48.754;8.868;2023-04-01T19:53:58;2.53;;;1.57;;
19179;SDS011;9722;48.754;8.868;2023-04-01T20:01:19;10.10;;;6.93;;
19179;SDS011;9722;48.754;8.868;2023-04-01T20:04:51;5.17;;;3.70;;
19179;SDS011;9722;48.754;8.868;2023-04-01T20:08:26;7.63;;;6.07;;
19179;SDS011;9722;48.754;8.868;2023-04-01T20:15:28;8.73;;;7.50;;
19179;SDS011;9722;48.754;8.868;2023-04-01T20:18:56;2.50;;;2.30;;
19179;SDS011;9722;48.754;8.868;2023-04-01T20:26:07;2.80;;;2.60;;
19179;SDS011;9722;48.754;8.868;2023-04-01T20:29:37;2.53;;;2.33;;
19179;SDS011;9722;48.754;8.868;2023-04-01T20:33:10;3.00;;;2.70;;
19179;SDS011;9722;48.754;8.868;2023-04-01T20:51:05;1.37;;;1.13;;
19179;SDS011;9722;48.754;8.868;2023-04-01T21:02:05;2.33;;;1.57;;
19179;SDS011;9722;48.754;8.868;2023-04-01T21:09:35;0.97;;;0.80;;
19179;SDS011;9722;48.754;8.868;2023-04-01T21:13:24;0.83;;;0.70;;
19179;SDS011;9722;48.754;8.868;2023-04-01T21:17:00;0.50;;;0.50;;
19179;SDS011;9722;48.754;8.868;2023-04-01T21:20:40;1.33;;;0.50;;
19179;SDS011;9722;48.754;8.868;2023-04-01T21:24:31;0.60;;;0.60;;
19179;SDS011;9722;48.754;8.868;2023-04-01T21:31:36;1.03;;;0.80;;
19179;SDS011;9722;48.754;8.868;2023-04-01T21:38:48;0.50;;;0.50;;
19179;SDS011;9722;48.754;8.868;2023-04-01T21:42:25;0.67;;;0.67;;
19179;SDS011;9722;48.754;8.868;2023-04-01T21:53:01;1.33;;;1.00;;
19179;SDS011;9722;48.754;8.868;2023-04-01T21:56:49;1.97;;;1.30;;
19179;SDS011;9722;48.754;8.868;2023-04-01T22:00:31;1.60;;;1.10;;
19179;SDS011;9722;48.754;8.868;2023-04-01T22:03:59;1.40;;;0.90;;
19179;SDS011;9722;48.754;8.868;2023-04-01T22:07:40;0.50;;;0.50;;
19179;SDS011;9722;48.754;8.868;2023-04-01T22:11:12;0.77;;;0.77;;
19179;SDS011;9722;48.754;8.868;2023-04-01T22:14:51;1.27;;;0.90;;
19179;SDS011;9722;48.754;8.868;2023-04-01T22:25:50;1.27;;;1.07;;
19179;SDS011;9722;48.754;8.868;2023-04-01T22:29:23;1.50;;;0.70;;
19179;SDS011;9722;48.754;8.868;2023-04-01T22:36:37;1.03;;;0.40;;
19179;SDS011;9722;48.754;8.868;2023-04-01T22:43:38;0.33;;;0.30;;
19179;SDS011;9722;48.754;8.868;2023-04-01T22:47:12;0.30;;;0.30;;
19179;SDS011;9722;48.754;8.868;2023-04-01T22:54:25;0.43;;;0.40;;
19179;SDS011;9722;48.754;8.868;2023-04-01T22:58:00;0.30;;;0.30;;
19179;SDS011;9722;48.754;8.868;2023-04-01T23:01:25;0.40;;;0.40;;
19179;SDS011;9722;48.754;8.868;2023-04-01T23:04:54;0.50;;;0.40;;
19179;SDS011;9722;48.754;8.868;2023-04-01T23:11:45;0.30;;;0.30;;
19179;SDS011;9722;48.754;8.868;2023-04-01T23:15:11;0.27;;;0.27;;
19179;SDS011;9722;48.754;8.868;2023-04-01T23:18:37;1.13;;;0.50;;
19179;SDS011;9722;48.754;8.868;2023-04-01T23:29:17;0.43;;;0.43;;
19179;SDS011;9722;48.754;8.868;2023-04-01T23:32:39;0.40;;;0.40;;
19179;SDS011;9722;48.754;8.868;2023-04-01T23:36:10;0.40;;;0.40;;
19179;SDS011;9722;48.754;8.868;2023-04-01T23:39:36;0.57;;;0.33;;
19179;SDS011;9722;48.754;8.868;2023-04-01T23:43:01;0.50;;;0.50;;
19179;SDS011;9722;48.754;8.868;2023-04-01T23:46:22;0.50;;;0.50;;
19179;SDS011;9722;48.754;8.868;2023-04-01T23:49:46;1.53;;;0.60;;
19179;SDS011;9722;48.754;8.868;2023-04-01T23:53:23;0.30;;;0.30;;
19179;SDS011;9722;48.754;8.868;2023-04-01T23:56:46;0.60;;;0.60;;
